createdAt,value
2023-05-10T00:02:21.509Z,17.07
2023-05-10T00:05:08.379Z,17.03
2023-05-10T00:07:54.582Z,16.68
2023-05-10T00:10:41.827Z,16.57
2023-05-10T00:13:27.725Z,16.56
2023-05-10T00:16:14.051Z,16.58
2023-05-10T00:19:01.840Z,16.74
2023-05-10T00:21:48.119Z,16.64
2023-05-10T00:24:34.225Z,16.63
2023-05-10T00:27:26.824Z,16.82
2023-05-10T00:30:20.448Z,16.86
2023-05-10T00:33:13.393Z,16.88
2023-05-10T00:36:08.343Z,16.88
2023-05-10T00:39:01.362Z,16.94
2023-05-10T00:41:53.764Z,16.85
2023-05-10T00:44:47.523Z,16.93
2023-05-10T00:47:40.383Z,16.82
2023-05-10T00:50:33.096Z,16.82
2023-05-10T00:53:27.343Z,16.83
2023-05-10T00:56:21.380Z,16.82
2023-05-10T00:59:13.814Z,16.70
2023-05-10T01:02:07.247Z,16.76
2023-05-10T01:04:59.702Z,16.78
2023-05-10T01:07:53.026Z,16.75
2023-05-10T01:10:47.302Z,16.67
2023-05-10T01:13:41.191Z,16.72
2023-05-10T01:19:54.774Z,16.82
2023-05-10T01:26:14.245Z,16.76
2023-05-10T01:29:21.342Z,16.74
2023-05-10T01:35:34.399Z,16.78
2023-05-10T01:41:45.144Z,16.83
2023-05-10T01:44:39.921Z,16.83
2023-05-10T01:47:35.699Z,16.88
2023-05-10T01:50:32.297Z,16.91
2023-05-10T01:53:25.612Z,16.98
2023-05-10T01:56:18.902Z,16.92
2023-05-10T01:59:15.061Z,17.02
2023-05-10T02:05:20.895Z,17.06
2023-05-10T02:08:15.719Z,16.84
2023-05-10T02:14:20.844Z,16.55
2023-05-10T02:17:14.586Z,16.63
2023-05-10T02:20:10.169Z,16.43
2023-05-10T02:26:07.675Z,16.36
2023-05-10T02:29:00.482Z,16.23
2023-05-10T02:31:55.090Z,16.31
2023-05-10T02:38:35.185Z,16.11
2023-05-10T02:44:43.077Z,16.26
2023-05-10T02:47:36.123Z,16.19
2023-05-10T02:50:30.131Z,16.17
2023-05-10T02:53:24.671Z,15.96
2023-05-10T02:56:22.565Z,16.00
2023-05-10T02:59:15.036Z,15.92
2023-05-10T03:02:09.210Z,15.83
2023-05-10T03:05:01.956Z,15.86
2023-05-10T03:07:53.481Z,15.59
2023-05-10T03:10:56.542Z,15.78
2023-05-10T03:14:18.015Z,15.58
2023-05-10T03:17:17.440Z,15.70
2023-05-10T03:20:13.087Z,15.87
2023-05-10T03:26:22.639Z,15.80
2023-05-10T03:29:16.496Z,15.86
2023-05-10T03:32:09.108Z,15.73
2023-05-10T03:35:03.332Z,15.70
2023-05-10T03:37:55.746Z,15.80
2023-05-10T03:40:47.638Z,15.73
2023-05-10T03:43:40.682Z,15.69
2023-05-10T03:46:32.989Z,15.43
2023-05-10T03:49:26.181Z,15.54
2023-05-10T03:55:35.417Z,15.65
2023-05-10T04:01:44.259Z,15.67
2023-05-10T04:07:50.223Z,15.92
2023-05-10T04:10:44.322Z,15.94
2023-05-10T04:13:37.366Z,15.73
2023-05-10T04:16:30.143Z,15.56
2023-05-10T04:19:22.883Z,15.46
2023-05-10T04:22:15.885Z,15.50
2023-05-10T04:25:10.104Z,15.48
2023-05-10T04:28:04.223Z,15.35
2023-05-10T04:31:03.188Z,15.14
2023-05-10T04:37:31.848Z,15.19
2023-05-10T04:41:02.168Z,15.16
2023-05-10T04:43:56.422Z,15.17
2023-05-10T04:47:06.221Z,15.25
2023-05-10T04:49:55.789Z,15.05
2023-05-10T04:52:49.100Z,15.31
2023-05-10T04:55:41.977Z,15.28
2023-05-10T04:58:34.752Z,15.17
2023-05-10T05:01:28.014Z,15.36
2023-05-10T05:04:20.864Z,15.26
2023-05-10T05:07:13.679Z,15.27
2023-05-10T05:10:06.835Z,15.58
2023-05-10T05:13:31.834Z,15.47
2023-05-10T05:16:24.804Z,15.56
2023-05-10T05:19:34.099Z,15.62
2023-05-10T05:22:28.651Z,15.59
2023-05-10T05:28:42.794Z,15.87
2023-05-10T05:31:35.943Z,15.71
2023-05-10T05:34:28.649Z,15.71
2023-05-10T05:37:23.367Z,15.74
2023-05-10T05:40:17.249Z,15.81
2023-05-10T05:43:09.992Z,15.63
2023-05-10T05:46:02.929Z,15.69
2023-05-10T05:48:55.700Z,15.76
2023-05-10T05:51:48.380Z,15.59
2023-05-10T05:54:41.349Z,15.63
2023-05-10T06:00:52.754Z,15.69
2023-05-10T06:03:46.088Z,15.68
2023-05-10T06:06:39.162Z,15.82
2023-05-10T06:09:32.066Z,15.88
2023-05-10T06:15:35.749Z,15.66
2023-05-10T06:18:29.354Z,15.64
2023-05-10T06:21:22.074Z,15.49
2023-05-10T06:24:15.063Z,15.67
2023-05-10T06:27:08.315Z,15.69
2023-05-10T06:33:13.331Z,16.03
2023-05-10T06:36:07.539Z,15.94
2023-05-10T06:38:59.848Z,16.06
2023-05-10T06:41:53.088Z,16.14
2023-05-10T06:44:45.910Z,16.13
2023-05-10T06:47:39.524Z,15.97
2023-05-10T06:50:32.519Z,16.09
2023-05-10T06:53:26.224Z,16.04
2023-05-10T06:59:17.329Z,16.19
2023-05-10T07:02:10.266Z,16.36
2023-05-10T07:05:15.133Z,16.36
2023-05-10T07:08:08.368Z,16.63
2023-05-10T07:11:07.975Z,16.21
2023-05-10T07:14:00.651Z,16.41
2023-05-10T07:20:14.562Z,16.78
2023-05-10T07:26:33.378Z,16.94
2023-05-10T07:32:51.152Z,17.27
2023-05-10T07:38:52.770Z,17.29
2023-05-10T07:44:58.645Z,17.21
2023-05-10T07:51:03.323Z,17.36
2023-05-10T07:53:55.845Z,17.78
2023-05-10T07:56:49.126Z,17.97
2023-05-10T07:59:42.141Z,18.30
2023-05-10T08:02:36.884Z,18.97
2023-05-10T08:05:55.572Z,18.73
2023-05-10T08:08:50.355Z,19.05
2023-05-10T08:11:42.919Z,19.43
2023-05-10T08:14:37.569Z,19.37
2023-05-10T08:17:30.056Z,19.26
2023-05-10T08:23:33.089Z,20.04
2023-05-10T08:26:25.972Z,19.94
2023-05-10T08:29:18.743Z,20.08
2023-05-10T08:32:10.796Z,20.84
2023-05-10T08:35:03.724Z,21.24
2023-05-10T08:37:54.035Z,21.34
2023-05-10T08:40:48.628Z,21.62
2023-05-10T08:43:42.452Z,22.32
2023-05-10T08:46:37.538Z,22.57
2023-05-10T08:49:33.387Z,22.79
2023-05-10T08:52:27.783Z,22.83
2023-05-10T08:55:39.447Z,22.58
2023-05-10T08:58:28.503Z,22.50
2023-05-10T09:01:21.807Z,22.97
2023-05-10T09:04:15.069Z,22.57
2023-05-10T09:07:08.251Z,23.00
2023-05-10T09:10:01.337Z,21.51
2023-05-10T09:12:54.995Z,20.23
2023-05-10T09:15:49.972Z,19.09
2023-05-10T09:18:42.618Z,18.55
2023-05-10T09:21:36.385Z,18.21
2023-05-10T09:27:41.827Z,18.31
2023-05-10T09:30:35.323Z,18.97
2023-05-10T09:33:29.042Z,19.18
2023-05-10T09:36:21.828Z,18.60
2023-05-10T09:39:15.226Z,18.86
2023-05-10T09:42:10.869Z,19.11
2023-05-10T09:45:05.506Z,19.97
2023-05-10T09:47:58.563Z,20.26
2023-05-10T09:54:21.932Z,21.90
2023-05-10T09:57:20.966Z,23.29
2023-05-10T10:00:20.906Z,24.42
2023-05-10T10:06:38.426Z,25.10
2023-05-10T10:12:51.546Z,25.91
2023-05-10T10:15:44.385Z,26.70
2023-05-10T10:18:39.596Z,26.69
2023-05-10T10:21:31.948Z,26.54
2023-05-10T10:27:45.293Z,27.84
2023-05-10T10:30:43.158Z,27.93
2023-05-10T10:33:53.685Z,27.92
2023-05-10T10:36:43.578Z,27.83
2023-05-10T10:39:30.227Z,28.28
2023-05-10T10:42:16.416Z,28.61
2023-05-10T10:45:14.235Z,29.39
2023-05-10T10:48:28.730Z,28.96
2023-05-10T10:51:15.172Z,29.03
2023-05-10T10:54:11.072Z,29.03
2023-05-10T10:57:12.557Z,29.53
2023-05-10T11:03:29.863Z,28.93
2023-05-10T11:06:30.784Z,27.94
2023-05-10T11:09:26.499Z,26.79
2023-05-10T11:12:18.729Z,26.60
2023-05-10T11:15:11.366Z,26.19
2023-05-10T11:18:19.161Z,25.52
2023-05-10T11:21:14.185Z,24.94
2023-05-10T11:24:14.982Z,25.41
2023-05-10T11:27:10.232Z,25.79
2023-05-10T11:30:04.955Z,26.55
2023-05-10T11:36:21.194Z,28.14
2023-05-10T11:39:14.036Z,27.65
2023-05-10T11:42:10.036Z,27.94
2023-05-10T11:45:11.030Z,27.99
2023-05-10T11:48:04.761Z,28.88
2023-05-10T11:50:58.064Z,29.14
2023-05-10T11:53:54.415Z,28.88
2023-05-10T11:56:46.881Z,28.63
2023-05-10T11:59:41.736Z,27.53
2023-05-10T12:02:36.498Z,27.33
2023-05-10T12:05:29.252Z,25.97
2023-05-10T12:08:24.744Z,25.92
2023-05-10T12:14:39.550Z,24.57
2023-05-10T12:17:32.030Z,24.08
2023-05-10T12:20:26.250Z,22.83
2023-05-10T12:23:19.295Z,21.66
2023-05-10T12:26:50.269Z,20.47
2023-05-10T12:29:45.767Z,19.48
2023-05-10T12:32:53.498Z,19.06
2023-05-10T12:35:47.468Z,18.88
2023-05-10T12:38:43.810Z,18.73
2023-05-10T12:41:30.668Z,19.07
2023-05-10T12:44:23.254Z,19.43
2023-05-10T12:47:17.335Z,19.79
2023-05-10T12:50:10.749Z,20.07
2023-05-10T12:53:02.916Z,19.98
2023-05-10T12:55:55.916Z,19.75
2023-05-10T12:58:49.294Z,19.71
2023-05-10T13:01:42.429Z,20.10
2023-05-10T13:04:38.501Z,20.02
2023-05-10T13:07:30.906Z,20.49
2023-05-10T13:10:24.782Z,21.32
2023-05-10T13:13:19.109Z,21.49
2023-05-10T13:16:12.156Z,22.15
2023-05-10T13:19:05.274Z,21.68
2023-05-10T13:25:06.949Z,23.01
2023-05-10T13:28:00.200Z,24.01
2023-05-10T13:30:53.213Z,25.06
2023-05-10T13:33:46.154Z,24.81
2023-05-10T13:36:39.760Z,24.85
2023-05-10T13:39:35.266Z,24.69
2023-05-10T13:42:29.442Z,24.52
2023-05-10T13:45:22.364Z,24.16
2023-05-10T13:48:14.958Z,23.78
2023-05-10T13:51:07.846Z,21.84
2023-05-10T13:53:59.638Z,21.25
2023-05-10T13:56:51.929Z,20.37
2023-05-10T13:59:46.407Z,19.91
2023-05-10T14:05:50.355Z,19.53
2023-05-10T14:08:43.897Z,18.82
2023-05-10T14:11:37.340Z,18.79
2023-05-10T14:14:30.449Z,18.64
2023-05-10T14:20:54.647Z,18.51
2023-05-10T14:23:47.146Z,18.28
2023-05-10T14:26:39.956Z,18.36
2023-05-10T14:29:32.894Z,18.45
2023-05-10T14:32:28.124Z,18.40
2023-05-10T14:35:21.076Z,18.38
2023-05-10T14:38:15.886Z,18.44
2023-05-10T14:41:06.290Z,18.51
2023-05-10T14:43:59.036Z,18.47
2023-05-10T14:46:52.725Z,18.53
2023-05-10T14:49:44.800Z,18.54
2023-05-10T14:52:37.339Z,18.61
2023-05-10T14:55:31.456Z,18.75
2023-05-10T15:01:57.072Z,18.73
2023-05-10T15:08:19.022Z,19.05
2023-05-10T15:11:50.247Z,19.35
2023-05-10T15:14:44.344Z,19.49
2023-05-10T15:17:37.485Z,19.84
2023-05-10T15:20:29.826Z,19.53
2023-05-10T15:23:22.961Z,19.79
2023-05-10T15:26:16.183Z,19.69
2023-05-10T15:29:35.105Z,19.54
2023-05-10T15:32:30.062Z,19.71
2023-05-10T15:35:23.184Z,19.70
2023-05-10T15:38:16.692Z,20.10
2023-05-10T15:41:09.093Z,20.72
2023-05-10T15:44:01.858Z,19.95
2023-05-10T15:46:53.963Z,19.27
2023-05-10T15:49:48.624Z,19.25
2023-05-10T15:52:41.018Z,19.58
2023-05-10T15:55:35.197Z,19.13
2023-05-10T15:58:27.708Z,18.87
2023-05-10T16:01:20.097Z,18.68
2023-05-10T16:04:12.851Z,18.14
2023-05-10T16:07:06.234Z,17.89
2023-05-10T16:09:58.807Z,17.92
2023-05-10T16:12:50.979Z,17.96
2023-05-10T16:15:48.090Z,17.70
2023-05-10T16:18:40.989Z,17.75
2023-05-10T16:21:34.462Z,17.83
2023-05-10T16:24:28.127Z,17.66
2023-05-10T16:30:33.351Z,16.77
2023-05-10T16:36:38.339Z,16.01
2023-05-10T16:42:44.677Z,16.27
2023-05-10T16:45:36.915Z,16.24
2023-05-10T16:48:30.317Z,16.02
2023-05-10T16:51:23.060Z,16.04
2023-05-10T16:54:17.161Z,16.30
2023-05-10T16:57:10.305Z,15.77
2023-05-10T17:00:04.785Z,15.46
2023-05-10T17:02:57.169Z,15.52
2023-05-10T17:06:01.576Z,15.98
2023-05-10T17:08:48.126Z,15.99
2023-05-10T17:11:42.012Z,15.74
2023-05-10T17:14:35.182Z,15.99
2023-05-10T17:17:29.264Z,16.16
2023-05-10T17:23:34.343Z,16.02
2023-05-10T17:26:27.500Z,16.00
2023-05-10T17:32:42.213Z,15.87
2023-05-10T17:38:56.168Z,15.43
2023-05-10T17:41:49.168Z,15.10
2023-05-10T17:44:50.710Z,15.17
2023-05-10T17:47:44.630Z,15.30
2023-05-10T17:50:37.230Z,14.97
2023-05-10T17:53:29.831Z,15.28
2023-05-10T17:59:28.859Z,15.45
2023-05-10T18:02:20.880Z,15.72
2023-05-10T18:05:27.054Z,15.59
2023-05-10T18:08:22.797Z,15.44
2023-05-10T18:14:40.926Z,15.88
2023-05-10T18:17:34.834Z,15.77
2023-05-10T18:20:29.639Z,15.61
2023-05-10T18:26:34.343Z,15.37
2023-05-10T18:29:27.178Z,15.36
2023-05-10T18:32:19.891Z,15.36
2023-05-10T18:35:12.629Z,15.39
2023-05-10T18:38:06.444Z,15.46
2023-05-10T18:40:58.802Z,15.46
2023-05-10T18:43:50.918Z,15.52
2023-05-10T18:46:43.856Z,15.56
2023-05-10T18:49:36.278Z,15.61
2023-05-10T18:55:35.210Z,15.58
2023-05-10T19:01:44.446Z,15.59
2023-05-10T19:04:37.284Z,15.61
2023-05-10T19:07:30.098Z,15.72
2023-05-10T19:10:23.379Z,15.76
2023-05-10T19:13:14.788Z,15.82
2023-05-10T19:16:13.008Z,15.80
2023-05-10T19:19:06.175Z,15.77
2023-05-10T19:25:12.938Z,15.87
2023-05-10T19:28:06.143Z,15.83
2023-05-10T19:34:10.726Z,15.88
2023-05-10T19:37:03.352Z,15.81
2023-05-10T19:39:56.149Z,15.76
2023-05-10T19:42:49.424Z,15.78
2023-05-10T19:49:03.144Z,15.73
2023-05-10T19:55:28.389Z,15.74
2023-05-10T20:02:07.344Z,15.67
2023-05-10T20:08:12.367Z,15.45
2023-05-10T20:11:06.755Z,15.60
2023-05-10T20:13:59.255Z,15.59
2023-05-10T20:16:52.132Z,15.62
2023-05-10T20:22:58.353Z,15.69
2023-05-10T20:29:09.276Z,15.61
2023-05-10T20:35:18.619Z,15.63
2023-05-10T20:38:11.383Z,15.66
2023-05-10T20:41:04.304Z,15.67
2023-05-10T20:47:14.996Z,15.60
2023-05-10T20:50:09.073Z,15.61
2023-05-10T20:56:14.350Z,15.51
2023-05-10T20:59:07.051Z,15.42
2023-05-10T21:05:22.990Z,15.44
2023-05-10T21:08:15.980Z,15.42
2023-05-10T21:11:08.829Z,15.42
2023-05-10T21:14:01.048Z,15.28
2023-05-10T21:16:54.380Z,14.94
2023-05-10T21:19:47.216Z,15.04
2023-05-10T21:22:41.326Z,15.14
2023-05-10T21:25:33.962Z,15.11
2023-05-10T21:28:44.441Z,15.15
2023-05-10T21:31:34.387Z,15.03
2023-05-10T21:34:27.222Z,14.88
2023-05-10T21:37:20.190Z,14.82
2023-05-10T21:40:15.279Z,15.09
2023-05-10T21:43:08.185Z,15.21
2023-05-10T21:46:00.916Z,15.23
2023-05-10T21:48:54.104Z,15.31
2023-05-10T21:51:47.221Z,15.29
2023-05-10T21:54:40.083Z,15.33
2023-05-10T21:57:34.314Z,15.38
2023-05-10T22:00:26.852Z,15.38
2023-05-10T22:03:19.085Z,15.40
2023-05-10T22:06:12.130Z,15.33
2023-05-10T22:09:05.211Z,15.40
2023-05-10T22:11:58.244Z,15.45
2023-05-10T22:15:02.863Z,15.49
2023-05-10T22:18:02.045Z,15.51
2023-05-10T22:21:20.162Z,15.49
2023-05-10T22:24:13.375Z,15.48
2023-05-10T22:27:06.697Z,15.53
2023-05-10T22:33:12.719Z,15.53
2023-05-10T22:36:05.974Z,15.46
2023-05-10T22:38:59.091Z,15.49
2023-05-10T22:45:04.592Z,15.52
2023-05-10T22:51:14.774Z,15.47
2023-05-10T22:54:07.016Z,15.21
2023-05-10T22:57:00.139Z,15.36
2023-05-10T22:59:53.328Z,15.48
2023-05-10T23:02:46.230Z,15.50
2023-05-10T23:05:39.041Z,15.54
2023-05-10T23:08:33.263Z,15.55
2023-05-10T23:14:38.421Z,15.60
2023-05-10T23:17:30.900Z,15.56
2023-05-10T23:20:22.953Z,15.62
2023-05-10T23:23:16.558Z,15.45
2023-05-10T23:26:35.611Z,15.59
2023-05-10T23:29:28.230Z,15.58
2023-05-10T23:32:20.996Z,15.60
2023-05-10T23:35:14.050Z,15.54
2023-05-10T23:38:00.021Z,15.55
2023-05-10T23:40:48.922Z,15.55
2023-05-10T23:46:44.742Z,15.55
2023-05-10T23:49:30.760Z,15.53
2023-05-10T23:55:29.419Z,15.56
2023-05-10T23:58:15.572Z,15.58
